createdAt,value
2022-08-05T00:09:35.751Z,19.33
2022-08-05T00:19:44.004Z,18.90
2022-08-05T00:29:48.942Z,18.82
2022-08-05T00:39:58.653Z,19.11
2022-08-05T00:50:02.017Z,19.00
2022-08-05T01:00:07.316Z,18.63
2022-08-05T01:10:16.797Z,18.61
2022-08-05T01:20:46.330Z,18.52
2022-08-05T01:30:57.012Z,18.95
2022-08-05T01:41:01.966Z,18.53
2022-08-05T01:51:12.408Z,18.63
2022-08-05T02:01:24.630Z,18.68
2022-08-05T02:11:42.110Z,18.56
2022-08-05T02:21:54.634Z,18.51
2022-08-05T02:31:58.421Z,18.19
2022-08-05T02:42:09.984Z,18.24
2022-08-05T02:52:30.896Z,18.01
2022-08-05T03:02:39.689Z,17.82
2022-08-05T03:12:42.666Z,17.91
2022-08-05T03:22:49.868Z,17.71
2022-08-05T03:32:54.344Z,17.69
2022-08-05T03:42:57.599Z,17.60
2022-08-05T03:55:50.893Z,17.85
2022-08-05T04:03:37.957Z,18.12
2022-08-05T04:13:49.676Z,18.44
2022-08-05T04:23:57.204Z,18.92
2022-08-05T04:34:31.996Z,19.45
2022-08-05T04:44:32.875Z,19.86
2022-08-05T04:54:35.846Z,20.52
2022-08-05T05:04:44.003Z,20.96
2022-08-05T05:14:51.429Z,21.59
2022-08-05T05:24:56.788Z,22.03
2022-08-05T05:35:02.310Z,22.47
2022-08-05T05:45:07.345Z,23.01
2022-08-05T05:55:13.242Z,23.66
2022-08-05T06:05:17.288Z,24.26
2022-08-05T06:15:23.932Z,25.09
2022-08-05T06:26:12.425Z,25.29
2022-08-05T06:36:03.620Z,25.55
2022-08-05T06:46:13.009Z,26.47
2022-08-05T06:56:26.341Z,27.26
2022-08-05T07:06:29.833Z,27.87
2022-08-05T07:17:56.788Z,28.57
2022-08-05T07:27:13.949Z,28.90
2022-08-05T07:37:17.522Z,29.67
2022-08-05T07:47:25.814Z,29.91
2022-08-05T07:57:50.478Z,31.02
2022-08-05T08:07:59.617Z,31.02
2022-08-05T08:18:07.022Z,31.62
2022-08-05T08:28:18.768Z,32.10
2022-08-05T08:38:38.850Z,31.58
2022-08-05T08:49:08.062Z,32.85
2022-08-05T08:59:14.974Z,33.45
2022-08-05T09:09:22.551Z,34.25
2022-08-05T09:19:27.928Z,34.31
2022-08-05T09:29:48.005Z,35.11
2022-08-05T09:39:52.292Z,35.11
2022-08-05T09:50:01.011Z,35.93
2022-08-05T10:00:10.468Z,36.49
2022-08-05T10:10:15.745Z,36.26
2022-08-05T10:20:21.001Z,36.60
2022-08-05T10:31:19.959Z,37.38
2022-08-05T10:42:38.774Z,37.24
2022-08-05T10:53:00.219Z,36.92
2022-08-05T11:03:22.790Z,37.72
2022-08-05T11:13:54.804Z,37.86
2022-08-05T11:24:30.081Z,37.88
2022-08-05T11:34:37.802Z,37.13
2022-08-05T11:44:53.250Z,37.81
2022-08-05T11:54:59.250Z,38.33
2022-08-05T12:05:32.205Z,38.56
2022-08-05T12:15:49.670Z,38.21
2022-08-05T12:25:56.596Z,38.75
2022-08-05T12:36:02.560Z,37.88
2022-08-05T12:46:05.754Z,37.65
2022-08-05T12:56:34.116Z,37.88
2022-08-05T13:06:41.298Z,38.32
2022-08-05T13:16:57.583Z,37.99
2022-08-05T13:27:01.881Z,37.64
2022-08-05T13:37:05.017Z,36.93
2022-08-05T13:47:10.576Z,36.99
2022-08-05T13:57:49.049Z,36.48
2022-08-05T14:08:05.550Z,36.33
2022-08-05T14:18:14.915Z,35.84
2022-08-05T14:28:26.078Z,36.18
2022-08-05T15:00:33.405Z,35.31
2022-08-05T15:10:37.245Z,35.07
2022-08-05T15:20:40.122Z,34.69
2022-08-05T15:30:45.739Z,34.62
2022-08-05T15:41:02.781Z,34.50
2022-08-05T15:51:13.264Z,34.35
2022-08-05T16:01:17.925Z,34.09
2022-08-05T16:11:40.168Z,33.89
2022-08-05T16:22:01.154Z,33.75
2022-08-05T16:32:09.991Z,33.61
2022-08-05T16:42:18.567Z,33.41
2022-08-05T16:52:32.596Z,33.07
2022-08-05T17:02:36.732Z,32.63
2022-08-05T17:12:51.676Z,32.22
2022-08-05T17:22:57.523Z,31.77
2022-08-05T17:33:01.773Z,31.46
2022-08-05T17:43:07.828Z,31.25
2022-08-05T17:53:13.181Z,30.94
2022-08-05T18:03:59.394Z,30.67
2022-08-05T18:13:43.760Z,30.51
2022-08-05T18:23:47.364Z,30.00
2022-08-05T18:33:51.615Z,29.34
2022-08-05T18:43:54.722Z,28.70
2022-08-05T18:53:59.343Z,27.95
2022-08-05T19:04:05.505Z,27.67
2022-08-05T19:14:53.518Z,27.35
2022-08-05T19:24:34.461Z,26.81
2022-08-05T19:34:38.469Z,26.56
2022-08-05T19:44:45.058Z,26.44
2022-08-05T19:54:49.849Z,26.17
2022-08-05T20:04:53.223Z,25.81
2022-08-05T20:14:56.443Z,25.71
2022-08-05T20:24:59.674Z,25.67
2022-08-05T20:35:02.958Z,25.10
2022-08-05T20:45:07.043Z,24.88
2022-08-05T20:56:07.965Z,24.72
2022-08-05T21:05:38.309Z,24.91
2022-08-05T21:15:57.072Z,24.91
2022-08-05T21:26:00.470Z,24.79
2022-08-05T21:36:07.361Z,24.40
2022-08-05T21:46:11.890Z,24.36
2022-08-05T21:56:16.775Z,24.08
2022-08-05T22:06:22.897Z,23.77
2022-08-05T22:16:50.731Z,23.48
2022-08-05T22:27:17.221Z,23.50
2022-08-05T22:47:49.956Z,23.35
2022-08-05T22:57:58.424Z,22.97
2022-08-05T23:08:01.416Z,23.10
2022-08-05T23:18:06.093Z,23.18
2022-08-05T23:28:15.776Z,22.93
2022-08-05T23:38:21.385Z,22.93
2022-08-05T23:48:26.354Z,22.30
2022-08-05T23:58:31.934Z,22.50
